Terminal Aerodrome Forecast
Issued by NWS Mt. Holly, NJ

Home | Current Version | Previous Version | Text Only | Print | Product List | Glossary On
Versions: 1 2 3 4 5 6 7 8 9 10 11 12 13 14 15 16
000
FTUS41 KPHI 280500
TAFILG
TAF
KILG 280520Z 2806/2906 23005KT P6SM BKN120
      TEMPO 2806/2810 3SM BR
     FM281700 29007KT 6SM -SHRA OVC050
      TEMPO 2820/2823 6SM -SHRA BKN025
     FM290100 32007KT P6SM SCT025 OVC100=

USA.gov is the U.S. government's official web portal to all federal, state and local government web resources and services.